Time;durP1;ratioP1;P1;durP2;ratioP2;P2;SDS_P1;SDS_P2;PMS_P1;PMS_P2;Temp;Humidity;BMP_temperature;BMP_pressure;BME280_temperature;BME280_humidity;BME280_pressure;Samples;Min_cycle;Max_cycle;Signal;HPM_P1;HPM_P2
2022/05/05 00:01:41;;;;;;;9.02;4.35;;;;;;;16.43;43.10;101907.13;5074417;28;20304;-67
2022/05/05 00:04:10;;;;;;;7.90;4.45;;;;;;;16.42;43.36;101902.75;5077914;28;20114;-66
2022/05/05 00:06:38;;;;;;;5.95;4.13;;;;;;;16.41;43.14;101904.66;5068798;28;20056;-67
2022/05/05 00:09:07;;;;;;;8.07;3.88;;;;;;;16.41;43.14;101899.22;5076270;28;20055;-67
2022/05/05 00:14:28;;;;;;;10.23;4.63;;;;;;;16.39;43.30;101895.91;5072883;28;20193;-67
2022/05/05 00:16:58;;;;;;;7.88;4.05;;;;;;;16.40;43.10;101904.88;5061587;28;20064;-67
2022/05/05 00:19:27;;;;;;;7.53;4.00;;;;;;;16.37;43.28;101902.63;5074804;28;20083;-67
2022/05/05 00:21:55;;;;;;;12.32;4.18;;;;;;;16.36;43.26;101904.53;5072985;28;20056;-67
2022/05/05 00:24:24;;;;;;;7.03;4.78;;;;;;;16.35;43.38;101905.59;5072019;28;20167;-68
2022/05/05 00:26:55;;;;;;;7.05;4.63;;;;;;;16.33;43.21;101902.28;5078752;28;20067;-67
2022/05/05 00:29:22;;;;;;;11.00;5.25;;;;;;;16.33;43.24;101912.31;5071963;28;20495;-66
2022/05/05 00:31:50;;;;;;;7.53;4.60;;;;;;;16.32;43.41;101910.66;5075070;28;20051;-67
2022/05/05 00:34:19;;;;;;;11.23;4.53;;;;;;;16.30;43.21;101908.19;5071389;28;20075;-67
2022/05/05 00:36:47;;;;;;;7.10;4.22;;;;;;;16.28;43.38;101910.28;5069780;28;20076;-67
2022/05/05 00:39:14;;;;;;;8.52;4.90;;;;;;;16.27;43.25;101903.22;5073657;28;20072;-66
2022/05/05 00:41:45;;;;;;;9.50;5.40;;;;;;;16.26;43.33;101904.28;5065705;28;20138;-67
2022/05/05 00:44:14;;;;;;;8.23;4.30;;;;;;;16.23;43.29;101902.84;5081235;28;20083;-67
2022/05/05 00:46:48;;;;;;;6.45;4.32;;;;;;;16.21;43.02;101904.16;5075065;28;20080;-67
2022/05/05 00:49:16;;;;;;;14.20;4.65;;;;;;;16.21;43.44;101901.44;5061604;28;20072;-66
2022/05/05 00:51:44;;;;;;;8.40;4.60;;;;;;;16.19;43.33;101900.84;5070802;28;20079;-66
2022/05/05 00:54:12;;;;;;;8.23;4.40;;;;;;;16.16;43.49;101901.31;5075606;28;20084;-67
2022/05/05 00:56:41;;;;;;;8.07;4.63;;;;;;;16.15;43.47;101905.91;5070322;28;20066;-67
2022/05/05 00:59:10;;;;;;;8.05;4.50;;;;;;;16.11;43.51;101902.00;5077201;28;20060;-66
2022/05/05 01:01:38;;;;;;;6.57;4.40;;;;;;;16.09;43.55;101901.41;5079499;28;20052;-65
2022/05/05 01:04:07;;;;;;;7.70;4.55;;;;;;;16.05;43.50;101899.41;5068688;28;20128;-66
2022/05/05 01:06:35;;;;;;;7.95;4.40;;;;;;;16.06;43.86;101899.16;5075043;28;20047;-67
2022/05/05 01:09:06;;;;;;;8.68;5.03;;;;;;;16.03;43.76;101891.50;5071017;28;20053;-67
2022/05/05 01:11:34;;;;;;;8.10;4.43;;;;;;;16.00;43.54;101897.38;5068657;28;20072;-66
2022/05/05 01:14:02;;;;;;;7.15;4.63;;;;;;;16.02;43.83;101897.97;5074508;28;20040;-67
2022/05/05 01:16:32;;;;;;;7.15;4.47;;;;;;;16.01;43.93;101898.22;5078598;28;20132;-66
2022/05/05 01:18:59;;;;;;;6.90;5.00;;;;;;;15.99;44.06;101901.16;5074719;28;20091;-67
2022/05/05 01:21:28;;;;;;;8.73;4.05;;;;;;;15.98;43.95;101899.50;5069625;28;20095;-66
2022/05/05 01:23:56;;;;;;;7.22;4.20;;;;;;;15.96;43.77;101904.34;5074170;28;20510;-67
2022/05/05 01:29:11;;;;;;;9.25;4.50;;;;;;;15.93;43.87;101896.66;5075136;28;20052;-66
2022/05/05 01:31:43;;;;;;;7.40;5.10;;;;;;;15.93;44.04;101891.25;5063098;28;20051;-67
2022/05/05 01:34:11;;;;;;;8.38;4.70;;;;;;;15.89;44.16;101890.06;5082621;28;20052;-67
2022/05/05 01:36:40;;;;;;;11.60;4.53;;;;;;;15.90;44.16;101892.53;5072625;28;20065;-67
2022/05/05 01:39:07;;;;;;;7.68;4.40;;;;;;;15.89;44.14;101893.59;5072980;28;20120;-67
2022/05/05 01:41:36;;;;;;;7.75;4.40;;;;;;;15.89;43.94;101895.47;5072839;28;20049;-67
2022/05/05 01:44:04;;;;;;;6.60;4.75;;;;;;;15.88;43.92;101905.50;5078352;28;20101;-67
2022/05/05 01:46:31;;;;;;;6.68;4.72;;;;;;;15.87;44.33;101900.28;5067543;28;20072;-66
2022/05/05 01:48:59;;;;;;;10.75;5.72;;;;;;;15.86;44.25;101902.19;5080261;28;20087;-66
2022/05/05 01:51:27;;;;;;;8.57;5.05;;;;;;;15.84;44.32;101895.34;5071025;28;20072;-67
2022/05/05 01:53:56;;;;;;;9.35;5.07;;;;;;;15.84;44.13;101903.47;5071615;28;20072;-67
2022/05/05 01:56:23;;;;;;;8.60;4.88;;;;;;;15.83;44.38;101901.81;5077396;28;20465;-67
2022/05/05 01:58:51;;;;;;;9.57;5.30;;;;;;;15.82;44.09;101903.69;5070322;28;20141;-67
2022/05/05 02:01:19;;;;;;;7.80;4.60;;;;;;;15.79;44.43;101898.75;5073747;28;20076;-67
2022/05/05 02:03:47;;;;;;;10.07;5.53;;;;;;;15.79;44.61;101903.34;5077145;28;20079;-67
2022/05/05 02:06:16;;;;;;;8.00;5.30;;;;;;;15.79;44.50;101906.03;5077946;28;20136;-67
2022/05/05 02:08:43;;;;;;;9.02;4.97;;;;;;;15.78;44.58;101904.41;5068505;28;20129;-67
2022/05/05 02:11:13;;;;;;;11.05;5.13;;;;;;;15.76;44.54;101903.78;5084544;28;20225;-67
2022/05/05 02:13:41;;;;;;;7.00;4.63;;;;;;;15.75;44.75;101912.97;5082552;28;20135;-68
2022/05/05 02:16:09;;;;;;;7.28;5.18;;;;;;;15.74;44.62;101903.19;5079790;28;20049;-68
2022/05/05 02:18:37;;;;;;;7.93;5.50;;;;;;;15.74;44.65;101911.34;5081356;28;20480;-68
2022/05/05 02:21:05;;;;;;;7.30;4.40;;;;;;;15.72;44.62;101899.91;5086710;28;20076;-68
2022/05/05 02:23:32;;;;;;;7.75;4.45;;;;;;;15.70;44.77;101908.25;5077612;28;20084;-67
2022/05/05 02:26:00;;;;;;;8.25;4.85;;;;;;;15.70;44.84;101910.13;5080005;28;20068;-67
2022/05/05 02:28:29;;;;;;;7.10;4.90;;;;;;;15.68;44.86;101907.66;5083593;28;20053;-66
2022/05/05 02:30:57;;;;;;;5.95;4.22;;;;;;;15.62;44.97;101898.56;5069062;28;20045;-66
2022/05/05 02:33:25;;;;;;;8.75;4.72;;;;;;;15.66;44.92;101906.22;5076171;28;20530;-66
2022/05/05 02:38:43;;;;;;;7.40;4.82;;;;;;;15.62;45.00;101903.97;5078010;28;20044;-67
2022/05/05 02:41:11;;;;;;;10.18;4.97;;;;;;;15.62;44.94;101908.56;5070617;28;20041;-67
2022/05/05 02:43:40;;;;;;;7.82;5.22;;;;;;;15.60;45.12;101903.38;5083479;28;20087;-67
2022/05/05 02:46:07;;;;;;;8.73;5.30;;;;;;;15.59;45.46;101906.34;5075622;28;20052;-67
2022/05/05 02:48:37;;;;;;;8.40;5.60;;;;;;;15.59;45.45;101903.66;5073243;28;20135;-66
2022/05/05 02:51:04;;;;;;;7.97;4.80;;;;;;;15.56;45.65;101902.19;5082114;28;20064;-68
2022/05/05 02:56:17;;;;;;;6.95;4.60;;;;;;;15.55;45.17;101902.41;5066036;28;20391;-67
2022/05/05 02:58:47;;;;;;;8.13;5.22;;;;;;;15.54;45.62;101898.88;5075905;28;20053;-67
2022/05/05 03:01:14;;;;;;;11.32;6.05;;;;;;;15.50;45.45;101892.25;5077255;28;20069;-67
2022/05/05 03:03:42;;;;;;;9.48;5.82;;;;;;;15.52;45.52;101900.16;5073307;28;20059;-67
2022/05/05 03:06:10;;;;;;;8.50;5.18;;;;;;;15.52;45.57;101905.59;5076796;28;20048;-67
2022/05/05 03:08:38;;;;;;;6.68;4.68;;;;;;;15.50;45.59;101903.09;5066321;28;20090;-66
2022/05/05 03:11:06;;;;;;;9.15;4.90;;;;;;;15.51;45.96;101904.75;5077869;28;20056;-67
2022/05/05 03:13:34;;;;;;;8.32;5.18;;;;;;;15.51;45.63;101903.94;5073703;28;20124;-67
2022/05/05 03:16:03;;;;;;;9.25;5.70;;;;;;;15.50;45.69;101913.13;5077126;28;20089;-67
2022/05/05 03:18:31;;;;;;;6.72;5.03;;;;;;;15.44;45.67;101895.88;5073000;28;20088;-67
2022/05/05 03:20:59;;;;;;;8.00;5.15;;;;;;;15.49;45.99;101915.00;5080328;28;20068;-67
2022/05/05 03:23:26;;;;;;;6.90;4.63;;;;;;;15.49;45.97;101908.75;5082842;28;20075;-67
2022/05/05 03:25:54;;;;;;;10.55;5.50;;;;;;;15.49;45.69;101914.16;5067972;28;20048;-67
2022/05/05 03:28:22;;;;;;;8.93;5.55;;;;;;;15.48;45.88;101913.34;5078118;28;20127;-67
2022/05/05 03:30:50;;;;;;;7.55;4.97;;;;;;;15.46;45.90;101904.63;5080582;28;20087;-67
2022/05/05 03:33:19;;;;;;;8.25;5.32;;;;;;;15.45;45.90;101908.38;5082541;28;20052;-66
2022/05/05 03:35:46;;;;;;;7.80;5.30;;;;;;;15.47;46.07;101917.09;5067026;28;20491;-66
2022/05/05 03:38:14;;;;;;;9.70;5.22;;;;;;;15.45;46.23;101913.81;5076669;28;20091;-66
2022/05/05 03:40:42;;;;;;;7.78;5.20;;;;;;;15.44;46.21;101909.44;5075055;28;20080;-66
2022/05/05 03:43:10;;;;;;;8.80;5.55;;;;;;;15.44;46.46;101914.03;5081494;28;20490;-66
2022/05/05 03:45:37;;;;;;;11.38;5.80;;;;;;;15.42;46.34;101911.53;5083307;28;20088;-66
2022/05/05 03:48:06;;;;;;;9.00;5.53;;;;;;;15.43;46.54;101923.22;5081255;28;20053;-67
2022/05/05 03:50:35;;;;;;;14.68;6.05;;;;;;;15.41;46.65;101917.19;5079826;28;20136;-66
2022/05/05 03:53:02;;;;;;;9.30;5.07;;;;;;;15.41;46.52;101920.72;5074884;28;20183;-67
2022/05/05 03:55:30;;;;;;;12.00;5.40;;;;;;;15.40;46.27;101918.25;5075348;28;20095;-67
2022/05/05 03:57:58;;;;;;;7.13;5.13;;;;;;;15.39;46.27;101925.53;5076705;28;20068;-66
2022/05/05 04:00:26;;;;;;;8.25;4.88;;;;;;;15.37;46.45;101927.66;5064887;28;20131;-67
2022/05/05 04:05:37;;;;;;;10.63;5.68;;;;;;;15.35;46.78;101927.06;5061691;28;20127;-68
2022/05/05 04:08:06;;;;;;;12.70;5.40;;;;;;;15.35;46.93;101934.34;5075490;28;20094;-68
2022/05/05 04:10:34;;;;;;;8.18;4.72;;;;;;;15.25;46.97;101918.63;5080852;28;20128;-67
2022/05/05 04:13:01;;;;;;;11.30;5.65;;;;;;;15.33;46.66;101939.16;5073931;28;20081;-67
2022/05/05 04:15:29;;;;;;;7.63;5.40;;;;;;;15.33;46.97;101936.47;5077299;28;20198;-68
2022/05/05 04:17:57;;;;;;;7.72;4.95;;;;;;;15.32;46.67;101948.34;5075844;28;20136;-68
2022/05/05 04:20:25;;;;;;;9.07;5.82;;;;;;;15.31;46.80;101950.22;5075492;28;20083;-68
2022/05/05 04:22:56;;;;;;;8.50;5.38;;;;;;;15.27;46.84;101947.16;5077683;28;20084;-68
2022/05/05 04:25:24;;;;;;;7.93;5.55;;;;;;;15.29;46.95;101946.91;5081335;28;20098;-68
2022/05/05 04:27:52;;;;;;;7.85;5.72;;;;;;;15.25;47.01;101941.13;5068510;28;20076;-68
2022/05/05 04:30:21;;;;;;;10.75;5.43;;;;;;;15.27;46.93;101946.31;5066209;28;20348;-68
2022/05/05 04:32:49;;;;;;;11.57;5.85;;;;;;;15.27;46.93;101951.72;5079511;28;20076;-67
2022/05/05 04:35:17;;;;;;;9.13;5.70;;;;;;;15.27;47.03;101954.44;5071698;28;20319;-67
2022/05/05 04:37:44;;;;;;;8.85;5.22;;;;;;;15.25;47.09;101957.38;5073186;28;20072;-68
2022/05/05 04:40:14;;;;;;;10.85;5.60;;;;;;;15.25;47.17;101959.25;5072976;28;20048;-67
2022/05/05 04:42:41;;;;;;;9.35;5.57;;;;;;;15.24;47.34;101958.44;5073935;28;20125;-67
2022/05/05 04:45:10;;;;;;;12.75;5.80;;;;;;;15.24;47.36;101963.03;5073311;28;20055;-67
2022/05/05 04:47:43;;;;;;;9.55;5.28;;;;;;;15.23;47.08;101962.19;5074056;28;20045;-68
2022/05/05 04:50:11;;;;;;;9.80;5.75;;;;;;;15.23;46.92;101959.47;5074805;28;20053;-67
2022/05/05 04:52:39;;;;;;;12.98;6.32;;;;;;;15.23;47.09;101964.06;5082554;28;20541;-68
2022/05/05 04:55:07;;;;;;;8.40;5.55;;;;;;;15.23;47.17;101969.50;5081010;28;20056;-68
2022/05/05 04:57:37;;;;;;;12.20;5.70;;;;;;;15.22;46.86;101968.66;5070651;28;21171;-68
2022/05/05 05:00:08;;;;;;;9.38;6.10;;;;;;;15.22;47.21;101973.25;5073234;28;20080;-68
2022/05/05 05:02:36;;;;;;;12.20;6.20;;;;;;;15.21;47.13;101975.13;5077351;28;20076;-68
2022/05/05 05:05:05;;;;;;;9.65;5.10;;;;;;;15.21;46.73;101971.59;5075157;28;20088;-66
2022/05/05 05:07:33;;;;;;;8.98;5.28;;;;;;;15.15;47.07;101965.19;5071735;28;20091;-69
2022/05/05 05:10:01;;;;;;;10.00;5.63;;;;;;;15.20;46.78;101978.06;5079462;28;20052;-67
2022/05/05 05:12:28;;;;;;;9.95;5.25;;;;;;;15.20;46.84;101981.59;5075817;28;20120;-66
2022/05/05 05:14:58;;;;;;;9.35;6.43;;;;;;;15.19;47.04;101977.22;5068597;28;20466;-68
2022/05/05 05:17:25;;;;;;;9.60;5.75;;;;;;;15.19;46.72;101981.81;5076174;28;20048;-65
2022/05/05 05:19:53;;;;;;;9.10;6.25;;;;;;;15.18;46.62;101983.69;5081697;28;20115;-65
2022/05/05 05:22:22;;;;;;;10.38;6.43;;;;;;;15.17;47.24;101978.50;5077680;28;20068;-65
2022/05/05 05:24:49;;;;;;;7.80;5.80;;;;;;;15.16;47.24;101988.50;5073251;28;20063;-65
2022/05/05 05:27:18;;;;;;;10.63;6.05;;;;;;;15.16;47.14;101993.09;5075543;28;20641;-65
2022/05/05 05:29:45;;;;;;;8.48;5.32;;;;;;;15.14;47.11;101992.50;5077548;28;20478;-65
2022/05/05 05:32:14;;;;;;;12.07;5.90;;;;;;;15.13;47.22;101988.97;5061110;28;20108;-64
2022/05/05 05:34:42;;;;;;;9.95;6.32;;;;;;;15.13;47.29;101990.84;5079198;28;20077;-65
2022/05/05 05:37:10;;;;;;;11.98;6.13;;;;;;;15.12;47.03;101986.47;5074900;28;20517;-66
2022/05/05 05:39:38;;;;;;;9.10;6.35;;;;;;;15.12;46.95;101995.44;5076399;28;20111;-67
2022/05/05 05:42:07;;;;;;;12.23;6.68;;;;;;;15.10;46.98;101994.00;5072980;28;20482;-61
2022/05/05 05:44:34;;;;;;;14.32;6.80;;;;;;;15.10;46.78;101992.13;5071549;28;20055;-62
2022/05/05 05:47:02;;;;;;;7.35;5.22;;;;;;;15.09;47.01;102000.47;5072708;28;20086;-61
2022/05/05 05:49:32;;;;;;;9.88;6.60;;;;;;;15.11;47.34;102003.78;5070158;28;20486;-61
2022/05/05 05:52:00;;;;;;;9.00;5.78;;;;;;;15.10;47.01;101999.41;5074900;28;20123;-62
2022/05/05 05:54:27;;;;;;;9.15;5.88;;;;;;;15.10;47.05;102002.94;4715286;28;10000254;-62
2022/05/05 05:56:55;;;;;;;8.98;5.72;;;;;;;15.11;47.00;102003.78;5066839;28;20096;-63
2022/05/05 05:59:23;;;;;;;10.07;6.10;;;;;;;15.11;47.18;102012.72;5080412;28;20079;-62
2022/05/05 06:04:37;;;;;;;9.57;6.40;;;;;;;15.11;46.70;102007.31;5066706;28;20079;-62
2022/05/05 06:07:05;;;;;;;8.82;5.97;;;;;;;15.08;46.99;102007.75;5080733;28;20083;-62
2022/05/05 06:09:33;;;;;;;14.32;7.50;;;;;;;15.13;46.77;102015.22;5073684;28;20455;-63
2022/05/05 06:12:01;;;;;;;11.18;6.45;;;;;;;15.13;46.72;102021.47;5079440;28;20131;-62
2022/05/05 06:14:29;;;;;;;13.95;5.97;;;;;;;15.14;46.52;102023.13;5085224;28;20107;-62
2022/05/05 06:16:56;;;;;;;11.75;6.18;;;;;;;15.16;46.52;102021.00;5073372;28;20087;-63
2022/05/05 06:19:24;;;;;;;8.48;5.60;;;;;;;15.17;46.81;102021.84;5074891;28;20059;-62
2022/05/05 06:21:53;;;;;;;10.35;6.40;;;;;;;15.18;46.43;102027.03;5082188;28;20053;-63
2022/05/05 06:24:21;;;;;;;13.10;6.05;;;;;;;15.19;46.35;102025.97;5079405;28;20084;-62
2022/05/05 06:26:49;;;;;;;11.55;6.10;;;;;;;15.20;46.54;102022.22;5062773;28;20095;-64
2022/05/05 06:29:16;;;;;;;11.52;5.50;;;;;;;15.22;46.75;102019.28;5075150;28;20049;-67
2022/05/05 06:31:44;;;;;;;10.13;6.65;;;;;;;15.23;46.82;102029.91;5079028;28;20037;-64
2022/05/05 06:34:12;;;;;;;11.75;6.22;;;;;;;15.25;46.53;102026.97;5076804;28;20043;-60
2022/05/05 06:36:40;;;;;;;10.90;5.55;;;;;;;15.25;46.50;102025.09;5070414;28;20052;-62
2022/05/05 06:39:09;;;;;;;10.95;5.38;;;;;;;15.27;46.32;102027.56;5068549;28;20045;-62
2022/05/05 06:41:36;;;;;;;8.70;5.13;;;;;;;15.29;46.73;102031.72;5070854;28;20675;-63
2022/05/05 06:44:05;;;;;;;8.57;5.40;;;;;;;15.30;46.41;102029.81;5071118;28;20117;-64
2022/05/05 06:46:32;;;;;;;11.63;6.05;;;;;;;15.33;46.50;102025.84;5075242;28;20056;-63
2022/05/05 06:49:00;;;;;;;9.50;5.60;;;;;;;15.33;46.56;102026.66;5067763;28;20585;-62
2022/05/05 06:51:28;;;;;;;6.88;4.78;;;;;;;15.37;46.72;102035.19;5071688;28;20051;-62
2022/05/05 06:53:56;;;;;;;12.15;5.63;;;;;;;15.39;46.49;102033.06;5071673;28;20124;-62
2022/05/05 06:56:26;;;;;;;13.45;6.32;;;;;;;15.39;46.93;102041.19;5062866;28;20080;-64
2022/05/05 06:58:54;;;;;;;8.43;4.80;;;;;;;15.42;46.68;102044.28;5062131;28;20076;-63
2022/05/05 07:06:53;;;;;;;10.80;5.80;;;;;;;15.47;46.66;102049.88;5077663;28;20112;-63
2022/05/05 07:12:08;;;;;;;10.73;7.00;;;;;;;15.50;47.32;102059.41;5068547;28;20128;-63
2022/05/05 07:14:36;;;;;;;11.23;6.68;;;;;;;15.52;47.00;102058.16;5076469;28;20072;-64
2022/05/05 07:17:04;;;;;;;14.45;7.78;;;;;;;15.53;46.79;102062.50;5067657;28;20055;-63
2022/05/05 07:19:32;;;;;;;13.38;6.80;;;;;;;15.58;47.66;102056.44;5075016;28;20065;-62
2022/05/05 07:22:00;;;;;;;16.55;7.53;;;;;;;15.60;47.44;102065.19;5069258;28;20388;-63
2022/05/05 07:24:27;;;;;;;14.88;8.25;;;;;;;15.65;47.54;102061.75;5067604;28;20079;-63
2022/05/05 07:27:00;;;;;;;11.95;7.00;;;;;;;15.67;47.37;102060.47;5071173;28;20132;-63
2022/05/05 07:29:29;;;;;;;13.48;7.30;;;;;;;15.67;46.90;102065.06;5073572;28;20080;-63
2022/05/05 07:31:57;;;;;;;11.05;6.38;;;;;;;15.68;47.15;102072.16;5068566;28;20410;-63
2022/05/05 07:34:25;;;;;;;16.33;8.63;;;;;;;15.69;47.29;102071.09;5075015;28;20083;-63
2022/05/05 07:36:53;;;;;;;12.55;7.43;;;;;;;15.69;47.21;102077.34;5069083;28;20048;-63
2022/05/05 07:39:20;;;;;;;12.85;7.28;;;;;;;15.69;47.39;102074.63;5069071;28;20573;-63
2022/05/05 07:41:48;;;;;;;11.68;6.38;;;;;;;15.72;47.01;102081.47;5064487;28;20088;-64
2022/05/05 07:44:16;;;;;;;12.50;7.63;;;;;;;15.71;47.31;102074.41;5079389;28;20064;-63
2022/05/05 07:46:45;;;;;;;16.48;8.40;;;;;;;15.76;48.83;102075.38;5074077;28;20116;-64
2022/05/05 07:49:13;;;;;;;15.80;9.07;;;;;;;15.77;48.65;102071.63;5064039;28;20090;-63
2022/05/05 07:51:41;;;;;;;15.15;8.27;;;;;;;15.79;47.84;102080.34;5069610;28;20044;-63
2022/05/05 07:57:08;;;;;;;14.00;9.13;;;;;;;15.82;47.60;102082.63;5038225;28;20497;-63
2022/05/05 07:59:39;;;;;;;19.15;11.80;;;;;;;15.76;48.04;102077.28;5041451;28;20053;-64
2022/05/05 08:02:13;;;;;;;21.50;9.95;;;;;;;15.86;47.91;102083.00;5047857;28;20056;-64
2022/05/05 08:04:41;;;;;;;17.02;11.35;;;;;;;15.86;48.05;102080.28;5050581;28;20357;-63
2022/05/05 08:07:09;;;;;;;22.17;12.88;;;;;;;15.84;48.54;102075.09;5041843;28;20057;-63
2022/05/05 08:09:37;;;;;;;18.70;12.35;;;;;;;15.89;48.35;102083.38;5041011;28;20045;-64
2022/05/05 08:12:24;;;;;;;21.60;12.77;;;;;;;15.91;48.63;102086.69;5046139;28;20536;-64
2022/05/05 08:14:52;;;;;;;21.13;12.75;;;;;;;15.93;48.18;102086.44;5045445;28;20085;-64
2022/05/05 08:17:21;;;;;;;18.05;10.52;;;;;;;15.98;48.74;102093.91;5036938;28;20131;-63
2022/05/05 08:19:49;;;;;;;18.38;11.43;;;;;;;16.01;48.96;102086.16;5040689;28;20049;-64
2022/05/05 08:22:17;;;;;;;16.58;11.32;;;;;;;16.03;48.68;102092.16;5043738;28;20222;-63
2022/05/05 08:30:15;;;;;;;17.52;11.93;;;;;;;16.05;48.58;102086.50;5044414;28;20042;-63
2022/05/05 08:32:45;;;;;;;25.10;13.18;;;;;;;16.11;48.43;102102.72;5069588;28;20055;-62
2022/05/05 08:35:12;;;;;;;16.60;11.57;;;;;;;16.14;48.58;102109.56;5076485;28;20072;-62
2022/05/05 08:37:40;;;;;;;18.13;11.88;;;;;;;16.15;48.52;102097.66;5072686;28;20417;-62
2022/05/05 08:40:12;;;;;;;20.30;11.00;;;;;;;16.16;48.54;102102.84;5068601;28;20040;-62
2022/05/05 08:42:40;;;;;;;18.50;12.07;;;;;;;16.19;48.57;102101.56;5071507;28;20056;-63
2022/05/05 08:45:09;;;;;;;22.27;11.50;;;;;;;16.21;48.55;102100.28;5072580;28;20056;-63
2022/05/05 08:47:37;;;;;;;17.65;10.73;;;;;;;16.24;48.57;102107.97;5070297;28;20126;-63
2022/05/05 08:50:10;;;;;;;22.05;11.18;;;;;;;16.27;48.85;102112.94;5068946;28;20087;-60
2022/05/05 08:52:44;;;;;;;13.15;9.15;;;;;;;16.31;48.54;102116.00;5063730;28;20050;-63
2022/05/05 08:55:14;;;;;;;19.65;10.02;;;;;;;16.33;48.49;102119.31;5075767;28;20079;-62
2022/05/05 08:57:42;;;;;;;14.32;8.38;;;;;;;16.37;49.07;102112.38;5083300;28;20067;-62
2022/05/05 09:00:13;;;;;;;11.82;7.13;;;;;;;16.39;49.54;102090.44;5070122;28;20047;-63
2022/05/05 09:02:41;;;;;;;14.52;8.77;;;;;;;16.50;49.44;102114.91;5068084;28;20064;-61
2022/05/05 09:05:11;;;;;;;14.88;9.32;;;;;;;16.57;49.77;102114.81;5073849;28;20137;-62
2022/05/05 09:07:50;;;;;;;17.17;10.95;;;;;;;16.64;49.71;102118.28;5077687;28;20127;-62
2022/05/05 09:10:19;;;;;;;19.92;12.18;;;;;;;16.69;49.96;102115.72;5070791;28;20052;-63
2022/05/05 09:13:00;;;;;;;15.80;9.55;;;;;;;16.68;49.64;102116.78;5064540;28;20513;-62
2022/05/05 09:15:33;;;;;;;15.25;9.75;;;;;;;16.69;49.64;102121.16;5071211;28;20048;-62
2022/05/05 09:18:14;;;;;;;18.33;10.30;;;;;;;16.71;49.85;102121.75;5065675;28;20055;-61
2022/05/05 09:20:45;;;;;;;22.15;12.27;;;;;;;16.90;49.83;102117.91;5069830;28;20076;-62
2022/05/05 09:23:27;;;;;;;18.23;10.07;;;;;;;16.84;49.62;102104.44;5077460;28;20048;-62
2022/05/05 09:25:55;;;;;;;14.57;9.70;;;;;;;16.86;49.46;102116.72;5066159;28;20072;-62
2022/05/05 09:28:24;;;;;;;14.38;9.65;;;;;;;16.87;49.40;102112.09;5074846;28;20582;-63
2022/05/05 09:30:54;;;;;;;15.48;9.57;;;;;;;16.96;49.51;102120.75;5071507;28;20040;-62
2022/05/05 09:33:37;;;;;;;17.60;10.10;;;;;;;17.05;49.40;102117.47;5073238;28;20075;-61
2022/05/05 09:36:08;;;;;;;16.67;9.82;;;;;;;17.08;49.19;102117.00;5072873;28;20179;-61
2022/05/05 09:38:50;;;;;;;17.02;10.25;;;;;;;17.14;49.54;102120.66;5078648;28;20358;-62
2022/05/05 09:41:18;;;;;;;16.48;10.45;;;;;;;17.14;49.41;102118.78;5072293;28;20135;-61
2022/05/05 09:43:46;;;;;;;16.40;9.65;;;;;;;17.15;49.33;102123.16;5076802;28;20123;-61
2022/05/05 09:46:34;;;;;;;13.80;8.88;;;;;;;17.26;49.50;102126.09;5073635;28;20078;-62
2022/05/05 09:49:07;;;;;;;13.88;9.15;;;;;;;17.27;49.34;102128.59;5055541;28;20478;-62
2022/05/05 09:51:40;;;;;;;11.85;9.10;;;;;;;17.35;49.51;102135.53;5067151;28;20072;-61
2022/05/05 09:59:47;;;;;;;12.10;8.60;;;;;;;17.40;49.53;102131.03;5074059;28;20080;-61
2022/05/05 10:04:00;;;;;;;13.10;7.18;;;;;;;17.38;49.27;102133.16;5067339;28;20049;-62
2022/05/05 10:05:10;;;;;;;12.55;7.60;;;;;;;17.39;48.89;102134.00;5064727;28;20056;-61
2022/05/05 10:07:44;;;;;;;11.77;6.35;;;;;;;17.38;48.91;102132.34;5067711;28;20049;-62
2022/05/05 10:10:14;;;;;;;14.95;7.88;;;;;;;17.39;49.12;102139.44;5067948;28;20108;-65
2022/05/05 10:12:42;;;;;;;12.30;7.20;;;;;;;17.40;48.74;102141.09;5073516;28;20076;-62
2022/05/05 10:15:12;;;;;;;10.82;7.25;;;;;;;17.37;48.26;102136.94;5070824;28;20049;-61
2022/05/05 10:17:40;;;;;;;10.50;7.60;;;;;;;17.33;48.39;102135.81;5065605;28;20107;-63
2022/05/05 10:20:12;;;;;;;15.07;9.13;;;;;;;17.29;48.49;102139.22;5061993;28;20152;-62
2022/05/05 10:22:48;;;;;;;17.10;9.95;;;;;;;17.29;48.43;102145.47;5071390;28;20270;-62
2022/05/05 10:25:20;;;;;;;17.70;11.05;;;;;;;17.27;48.30;102146.78;5066260;28;20049;-61
2022/05/05 10:27:48;;;;;;;21.75;12.10;;;;;;;17.24;48.62;102142.66;5067871;28;20090;-61
2022/05/05 10:30:17;;;;;;;21.95;13.57;;;;;;;17.24;48.64;102142.66;5075507;28;20076;-62
2022/05/05 10:32:44;;;;;;;23.13;15.25;;;;;;;17.22;48.56;102144.75;5075582;28;20105;-61
2022/05/05 10:35:23;;;;;;;22.08;14.32;;;;;;;17.21;48.81;102148.53;5069552;28;20274;-61
2022/05/05 10:37:53;;;;;;;22.95;15.38;;;;;;;17.20;48.80;102141.47;5070499;28;20076;-62
2022/05/05 10:40:23;;;;;;;21.27;14.27;;;;;;;17.20;48.98;102150.44;5074560;28;20171;-62
2022/05/05 10:42:52;;;;;;;26.17;15.57;;;;;;;17.23;49.08;102147.25;5068280;28;20049;-62
2022/05/05 10:45:30;;;;;;;22.23;14.82;;;;;;;17.26;49.26;102139.69;5073046;28;20656;-62
2022/05/05 10:48:31;;;;;;;21.25;13.50;;;;;;;17.31;48.98;102137.94;5069697;28;20081;-62
2022/05/05 10:51:08;;;;;;;22.50;14.25;;;;;;;17.36;48.82;102143.44;5074090;28;20045;-62
2022/05/05 10:53:40;;;;;;;20.98;13.07;;;;;;;17.39;48.89;102144.88;5076544;28;20573;-62
2022/05/05 10:56:29;;;;;;;23.85;13.32;;;;;;;17.42;48.60;102142.50;5080480;28;20059;-62
2022/05/05 10:58:58;;;;;;;19.00;11.85;;;;;;;17.44;48.46;102145.00;5066370;28;20128;-62
2022/05/05 11:01:26;;;;;;;21.90;12.77;;;;;;;17.45;48.58;102144.75;5074283;28;20048;-61
2022/05/05 11:04:25;;;;;;;18.90;11.57;;;;;;;17.47;48.68;102142.63;5072752;28;20104;-62
2022/05/05 11:07:37;;;;;;;17.15;12.63;;;;;;;17.48;48.45;102141.56;5002731;28;20486;-61
2022/05/05 11:10:08;;;;;;;17.15;10.85;;;;;;;17.49;48.39;102142.41;5001956;28;20093;-62
2022/05/05 11:12:37;;;;;;;20.83;12.25;;;;;;;17.55;48.45;102146.88;4995653;28;20622;-65
2022/05/05 11:23:51;;;;;;;20.40;12.57;;;;;;;17.66;48.17;102135.22;4958483;28;20118;-63
2022/05/05 11:26:21;;;;;;;20.58;13.63;;;;;;;17.67;47.83;102141.47;4959238;28;20055;-63
2022/05/05 11:28:50;;;;;;;20.05;12.55;;;;;;;17.67;47.95;102141.47;4970006;28;20642;-64
2022/05/05 11:31:22;;;;;;;17.98;12.57;;;;;;;17.65;48.09;102132.69;4960178;28;20054;-63
2022/05/05 11:33:52;;;;;;;15.55;11.13;;;;;;;17.73;48.15;102127.75;4958042;28;20166;-63
2022/05/05 11:36:21;;;;;;;16.48;11.45;;;;;;;17.81;48.26;102126.56;4960294;28;20158;-63
2022/05/05 11:38:49;;;;;;;16.50;11.80;;;;;;;17.85;48.12;102135.91;4967054;28;20066;-63
2022/05/05 11:41:20;;;;;;;19.30;12.07;;;;;;;17.86;47.42;102124.78;4958575;28;20150;-63
2022/05/05 11:46:36;;;;;;;16.52;10.88;;;;;;;17.97;47.39;102138.59;5058296;28;20113;-63
2022/05/05 11:49:04;;;;;;;17.70;12.05;;;;;;;17.97;47.33;102131.28;5058950;28;20433;-63
2022/05/05 11:51:33;;;;;;;18.65;11.65;;;;;;;18.03;47.63;102130.31;5044892;28;20072;-63
2022/05/05 11:54:04;;;;;;;16.75;11.38;;;;;;;18.06;47.55;102127.09;5053338;28;20072;-63
2022/05/05 11:56:34;;;;;;;21.17;11.95;;;;;;;18.11;46.85;102127.22;5081130;28;20052;-63
2022/05/05 12:02:09;;;;;;;23.60;11.07;;;;;;;18.11;47.13;102118.22;5074693;28;20441;-62
2022/05/05 12:04:41;;;;;;;15.60;11.20;;;;;;;18.14;46.69;102129.44;5076662;28;20135;-63
2022/05/05 12:07:11;;;;;;;18.77;12.63;;;;;;;18.13;46.35;102125.06;5064247;28;20326;-63
2022/05/05 12:09:39;;;;;;;21.23;12.23;;;;;;;18.12;46.25;102120.69;5070725;28;20076;-63
2022/05/05 12:12:15;;;;;;;17.60;12.00;;;;;;;18.12;46.25;102117.16;5078650;28;20518;-62
2022/05/05 12:14:45;;;;;;;18.02;12.73;;;;;;;18.12;46.31;102115.25;5074459;28;20083;-63
2022/05/05 12:17:17;;;;;;;19.92;12.35;;;;;;;18.13;46.23;102118.81;5065840;28;20094;-64
2022/05/05 12:19:48;;;;;;;16.83;11.90;;;;;;;18.15;45.83;102120.22;5061207;28;20049;-63
2022/05/05 12:22:22;;;;;;;21.35;13.18;;;;;;;18.16;46.16;102116.44;5072664;28;20486;-63
2022/05/05 12:24:49;;;;;;;15.80;10.85;;;;;;;18.20;45.91;102119.50;5075508;28;20052;-63